Time;durP1;ratioP1;P1;durP2;ratioP2;P2;SDS_P1;SDS_P2;PMS_P1;PMS_P2;Temp;Humidity;BMP_temperature;BMP_pressure;BME280_temperature;BME280_humidity;BME280_pressure;Samples;Min_cycle;Max_cycle;Signal;HPM_P1;HPM_P2
2021/01/20 00:01:20;;;;;;;3.00;2.73;;;5.60;99.90;;;6.58;98.71;99378.84;5031594;28;20556;-63
2021/01/20 00:03:47;;;;;;;3.23;2.93;;;5.50;99.90;;;6.63;97.79;99386.25;5031826;28;20197;-63
2021/01/20 00:06:15;;;;;;;3.33;3.03;;;5.60;99.90;;;6.51;98.04;99393.31;5031840;28;20221;-65
2021/01/20 00:08:42;;;;;;;3.60;3.30;;;5.60;99.90;;;6.59;97.94;99385.03;5028645;28;20309;-63
2021/01/20 00:11:10;;;;;;;3.37;3.07;;;5.60;99.90;;;6.35;99.08;99389.25;5031601;28;20275;-63
2021/01/20 00:13:37;;;;;;;3.50;3.20;;;5.50;99.90;;;6.43;99.00;99385.53;5031622;28;20205;-64
2021/01/20 00:16:04;;;;;;;3.70;3.40;;;5.50;99.90;;;6.34;99.05;99392.97;5029182;28;20197;-62
2021/01/20 00:18:31;;;;;;;3.83;3.43;;;5.50;99.90;;;6.41;99.22;99372.34;5031860;28;20251;-63
2021/01/20 00:21:00;;;;;;;3.40;3.10;;;5.50;99.90;;;6.43;99.46;99382.84;5031915;28;20212;-63
2021/01/20 00:23:28;;;;;;;3.43;3.13;;;5.50;99.90;;;6.31;99.40;99385.34;5031830;28;20235;-63
2021/01/20 00:25:55;;;;;;;4.33;3.80;;;5.40;99.90;;;6.47;97.86;99389.41;5030646;28;20259;-63
2021/01/20 00:28:22;;;;;;;3.60;3.30;;;5.50;99.90;;;6.35;98.54;99381.22;5031323;28;20720;-62
2021/01/20 00:30:49;;;;;;;3.57;3.27;;;5.50;99.90;;;6.40;97.75;99377.91;5031806;28;20209;-62
2021/01/20 00:33:17;;;;;;;3.70;3.40;;;5.50;99.90;;;6.39;98.03;99368.25;5031180;28;20238;-62
2021/01/20 00:35:44;;;;;;;3.70;3.40;;;5.50;99.90;;;6.18;98.53;99369.34;5031730;28;20255;-62
2021/01/20 00:38:11;;;;;;;4.30;3.70;;;5.50;99.90;;;6.17;99.35;99381.09;5031863;28;20221;-61
2021/01/20 00:40:40;;;;;;;4.23;3.60;;;5.40;99.90;;;6.22;99.25;99376.72;5031357;28;20291;-62
2021/01/20 00:43:07;;;;;;;3.57;3.27;;;5.40;99.90;;;6.26;99.24;99389.72;5043437;28;20558;-62
2021/01/20 00:45:34;;;;;;;4.13;3.10;;;5.30;99.90;;;6.32;98.75;99380.81;5051648;28;20347;-62
2021/01/20 00:48:02;;;;;;;3.90;3.33;;;5.40;99.90;;;6.25;98.49;99372.81;5051523;28;20208;-62
2021/01/20 00:50:29;;;;;;;4.20;3.20;;;5.30;99.90;;;6.22;99.09;99370.59;5051505;28;20205;-62
2021/01/20 00:52:56;;;;;;;3.87;3.03;;;5.40;99.90;;;6.06;99.85;99373.69;5051269;28;20737;-62
2021/01/20 00:55:24;;;;;;;5.70;4.30;;;5.30;99.90;;;6.08;99.81;99353.75;5050935;28;20291;-63
2021/01/20 00:57:52;;;;;;;4.77;3.50;;;5.20;99.90;;;5.99;100.00;99356.84;5051417;28;20254;-62
2021/01/20 01:00:20;;;;;;;4.17;3.40;;;5.20;99.90;;;6.02;99.82;99354.59;5051479;28;20235;-63
2021/01/20 01:02:49;;;;;;;3.87;3.47;;;5.20;99.90;;;5.93;100.00;99347.03;5042320;28;20232;-62
2021/01/20 01:05:17;;;;;;;3.77;3.30;;;5.20;99.90;;;5.82;100.00;99345.81;5031526;28;20216;-62
2021/01/20 01:07:44;;;;;;;5.00;3.63;;;5.10;99.90;;;5.91;100.00;99344.56;5031538;28;20658;-63
2021/01/20 01:10:12;;;;;;;4.00;3.60;;;5.10;99.90;;;5.86;100.00;99346.22;5030982;28;20314;-62
2021/01/20 01:12:39;;;;;;;5.33;3.47;;;5.00;99.90;;;5.84;100.00;99335.72;5031199;28;20617;-63
2021/01/20 01:15:10;;;;;;;6.07;3.63;;;5.00;99.90;;;5.77;100.00;99344.75;5030837;28;20725;-63
2021/01/20 01:17:37;;;;;;;3.87;3.47;;;5.00;99.90;;;5.79;100.00;99343.53;5031084;28;20728;-62
2021/01/20 01:20:06;;;;;;;4.30;3.53;;;4.90;99.90;;;5.78;100.00;99341.06;5031339;28;20199;-62
2021/01/20 01:22:33;;;;;;;3.60;3.30;;;4.90;99.90;;;5.77;100.00;99350.94;5031315;28;20216;-63
2021/01/20 01:25:00;;;;;;;5.60;3.80;;;4.90;99.90;;;5.61;100.00;99359.38;5031068;28;20230;-62
2021/01/20 01:27:28;;;;;;;4.13;3.67;;;4.80;99.90;;;5.67;100.00;99347.88;5031016;28;20245;-62
2021/01/20 01:29:55;;;;;;;4.63;3.87;;;4.80;99.90;;;5.67;100.00;99355.88;5030844;28;20224;-62
2021/01/20 01:32:23;;;;;;;4.03;3.63;;;4.80;99.90;;;5.61;100.00;99361.22;5031158;28;20343;-62
2021/01/20 01:34:50;;;;;;;3.70;3.40;;;4.80;99.90;;;5.70;100.00;99351.97;5031195;28;20232;-62
2021/01/20 01:37:18;;;;;;;4.43;4.03;;;4.70;99.90;;;5.69;100.00;99353.81;5034126;28;20204;-62
2021/01/20 01:39:45;;;;;;;5.43;4.20;;;4.70;99.90;;;5.61;100.00;99355.88;5034196;28;20702;-62
2021/01/20 01:42:12;;;;;;;4.20;3.80;;;4.70;99.90;;;5.59;100.00;99365.97;5039438;28;20304;-64
2021/01/20 01:44:40;;;;;;;4.37;3.80;;;4.70;99.90;;;5.48;100.00;99348.69;5054376;28;20305;-63
2021/01/20 01:47:08;;;;;;;5.80;4.13;;;4.70;99.90;;;5.53;100.00;99340.88;5054386;28;20223;-63
2021/01/20 01:49:38;;;;;;;4.07;3.63;;;4.60;99.90;;;5.56;100.00;99335.16;5054536;28;20227;-63
2021/01/20 01:52:05;;;;;;;4.87;3.87;;;4.70;99.90;;;5.60;100.00;99341.72;5054443;28;20214;-63
2021/01/20 01:54:32;;;;;;;4.40;3.63;;;4.70;99.90;;;5.59;100.00;99337.41;5053919;28;20302;-62
2021/01/20 01:57:01;;;;;;;4.57;3.70;;;4.70;99.90;;;5.47;100.00;99335.56;5054383;28;20287;-62
2021/01/20 01:59:30;;;;;;;5.10;3.90;;;4.60;99.90;;;5.50;100.00;99335.97;5054026;28;20211;-62
2021/01/20 02:01:57;;;;;;;4.77;4.27;;;4.60;99.90;;;5.48;100.00;99335.34;5054046;28;20726;-62
2021/01/20 02:04:24;;;;;;;4.20;3.80;;;4.60;99.90;;;5.64;99.44;99331.44;5054499;28;20234;-62
2021/01/20 02:06:55;;;;;;;6.03;4.00;;;4.70;99.90;;;5.42;100.00;99327.34;5053932;28;20227;-62
2021/01/20 02:09:24;;;;;;;4.57;3.60;;;4.70;99.90;;;5.56;100.00;99319.13;5053563;28;20885;-62
2021/01/20 02:12:16;;;;;;;4.03;3.53;;;4.70;99.90;;;5.36;100.00;99310.28;5053782;28;20204;-63
2021/01/20 02:15:02;;;;;;;4.03;3.47;;;4.70;99.90;;;5.41;100.00;99305.16;5053986;28;20188;-63
2021/01/20 02:17:38;;;;;;;3.93;3.53;;;4.60;99.90;;;5.28;100.00;99301.69;5054233;28;20274;-62
2021/01/20 02:20:45;;;;;;;6.20;3.83;;;4.60;99.90;;;5.22;100.00;99300.69;5053764;28;20195;-62
2021/01/20 02:23:18;;;;;;;4.90;4.00;;;4.50;99.90;;;5.45;100.00;99294.88;5053749;28;20288;-62
2021/01/20 02:26:28;;;;;;;4.30;3.80;;;4.50;99.90;;;5.49;99.90;99298.78;5054238;28;20296;-61
2021/01/20 02:29:12;;;;;;;3.87;3.57;;;4.60;99.90;;;5.40;99.78;99297.34;4953167;29;20267;-63
2021/01/20 02:31:42;;;;;;;6.10;3.80;;;4.50;99.90;;;5.35;100.00;99294.47;5051256;28;20243;-63
2021/01/20 02:34:15;;;;;;;4.63;3.23;;;4.50;99.90;;;5.40;100.00;99292.00;5053417;28;20279;-63
2021/01/20 02:36:45;;;;;;;3.63;3.33;;;4.50;99.90;;;5.28;100.00;99289.16;5053676;28;20666;-62
2021/01/20 02:39:13;;;;;;;3.70;3.40;;;4.40;99.90;;;5.30;100.00;99296.97;5053187;28;20211;-63
2021/01/20 02:41:41;;;;;;;3.83;3.43;;;4.40;99.90;;;5.20;99.99;99291.22;5053117;28;20239;-62
2021/01/20 02:44:08;;;;;;;4.33;3.60;;;4.40;99.90;;;5.31;98.80;99293.28;5033287;28;20205;-62
2021/01/20 02:46:38;;;;;;;4.40;3.17;;;4.40;99.90;;;5.27;98.36;99292.03;5033380;28;20204;-61
2021/01/20 02:49:06;;;;;;;3.27;2.97;;;4.40;99.90;;;5.25;97.87;99297.59;5032706;28;20653;-62
2021/01/20 02:51:48;;;;;;;4.97;3.37;;;4.40;99.90;;;5.29;97.56;99296.16;5033483;28;20243;-62
2021/01/20 02:54:20;;;;;;;3.53;2.70;;;4.50;99.90;;;5.19;97.55;99292.25;5032880;28;20242;-62
2021/01/20 02:56:51;;;;;;;3.93;2.83;;;4.40;99.90;;;5.33;96.52;99292.03;5033498;28;20249;-62
2021/01/20 02:59:22;;;;;;;4.60;3.00;;;4.40;99.90;;;5.23;96.27;99296.97;5032986;28;20552;-62
2021/01/20 03:01:54;;;;;;;3.03;2.40;;;4.40;99.90;;;5.17;96.28;99304.97;5033397;28;20235;-62
2021/01/20 03:04:24;;;;;;;3.00;2.37;;;4.40;99.90;;;5.42;94.44;99300.66;5033315;28;20193;-62
2021/01/20 03:06:57;;;;;;;4.97;2.53;;;4.40;99.90;;;5.43;94.10;99297.75;5033241;28;20609;-62
2021/01/20 03:09:25;;;;;;;3.87;2.93;;;4.50;99.90;;;5.30;94.88;99292.44;5032637;28;20407;-62
2021/01/20 03:11:53;;;;;;;2.90;2.30;;;4.50;99.90;;;5.33;94.23;99285.88;5033140;28;20207;-62
2021/01/20 03:14:25;;;;;;;2.63;2.40;;;4.50;99.90;;;5.23;94.59;99290.78;5033008;28;20232;-62
2021/01/20 03:16:53;;;;;;;2.20;2.00;;;4.50;99.90;;;5.31;94.06;99299.41;5033135;28;20193;-62
2021/01/20 03:19:20;;;;;;;3.80;2.40;;;4.40;99.90;;;5.35;93.28;99299.81;5032655;28;20203;-62
2021/01/20 03:21:48;;;;;;;4.33;2.20;;;4.50;99.90;;;5.33;93.10;99288.56;5032908;28;20288;-62
2021/01/20 03:24:15;;;;;;;3.50;2.40;;;4.50;99.90;;;5.34;93.57;99292.84;5032238;28;20740;-61
2021/01/20 03:26:43;;;;;;;2.80;1.90;;;4.40;99.90;;;5.47;91.28;99282.16;5032835;28;20248;-62
2021/01/20 03:29:10;;;;;;;2.53;2.07;;;4.50;99.90;;;5.49;91.79;99280.09;5032216;28;20701;-62
2021/01/20 03:31:37;;;;;;;3.93;2.10;;;4.50;99.90;;;5.45;91.80;99274.34;5032775;28;20298;-62
2021/01/20 03:34:05;;;;;;;3.23;1.90;;;4.60;99.90;;;5.57;90.58;99271.84;5032411;28;20232;-61
2021/01/20 03:36:32;;;;;;;3.17;1.53;;;4.60;99.90;;;5.73;88.60;99271.41;5032611;28;20253;-63
2021/01/20 03:39:00;;;;;;;3.03;1.90;;;4.70;99.90;;;5.64;89.46;99262.81;5032280;28;20210;-63
2021/01/20 03:41:27;;;;;;;4.73;2.00;;;4.70;99.90;;;5.75;88.66;99264.81;5032222;28;20237;-62
2021/01/20 03:43:55;;;;;;;3.50;1.80;;;4.70;99.90;;;5.79;87.39;99270.56;5050792;28;20777;-62
2021/01/20 03:46:22;;;;;;;5.00;1.60;;;4.80;99.90;;;5.80;86.77;99274.88;5052472;28;20207;-62
2021/01/20 03:48:49;;;;;;;3.67;1.70;;;4.80;99.90;;;5.77;86.43;99261.91;5052527;28;20232;-61
2021/01/20 03:51:17;;;;;;;1.90;1.70;;;4.80;99.90;;;5.81;86.14;99244.44;5052428;28;20671;-62
2021/01/20 03:53:44;;;;;;;2.93;1.87;;;4.90;99.90;;;5.75;85.18;99248.78;5051828;28;20596;-62
2021/01/20 03:56:12;;;;;;;1.80;1.50;;;4.90;99.90;;;5.72;85.72;99246.53;5052267;28;20201;-61
2021/01/20 03:58:39;;;;;;;2.23;1.87;;;4.90;99.90;;;5.75;85.54;99243.44;5051389;28;20749;-63
2021/01/20 04:01:06;;;;;;;2.87;1.37;;;4.90;99.90;;;5.79;84.79;99243.84;5052121;28;20239;-62
2021/01/20 04:03:34;;;;;;;2.27;1.70;;;5.00;99.90;;;5.77;83.99;99241.38;5051947;28;20727;-62
2021/01/20 04:06:01;;;;;;;2.00;1.33;;;5.00;99.90;;;5.85;84.28;99237.69;5056309;28;20207;-62
2021/01/20 04:08:28;;;;;;;3.40;1.60;;;5.00;99.90;;;5.98;83.90;99238.44;5053549;28;20327;-62
2021/01/20 04:10:56;;;;;;;2.10;1.37;;;5.10;99.90;;;5.94;83.17;99233.72;5052097;28;20643;-62
2021/01/20 04:13:24;;;;;;;1.80;1.40;;;5.10;99.90;;;5.90;83.40;99227.97;5051365;28;20239;-62
2021/01/20 04:15:52;;;;;;;2.50;1.40;;;5.10;99.90;;;5.97;82.72;99215.41;5051753;28;20759;-62
2021/01/20 04:18:19;;;;;;;1.93;1.40;;;5.10;99.90;;;5.93;83.15;99219.56;5051802;28;20213;-61
2021/01/20 04:20:47;;;;;;;2.07;1.67;;;5.10;99.90;;;5.92;82.92;99219.75;5051953;28;20197;-63
2021/01/20 04:23:14;;;;;;;2.47;1.40;;;5.10;99.90;;;5.98;82.30;99213.56;5051205;28;20227;-62
2021/01/20 04:25:42;;;;;;;2.67;2.27;;;5.20;99.90;;;5.85;83.66;99217.09;5052330;28;20270;-62
2021/01/20 04:28:09;;;;;;;2.83;1.67;;;5.10;99.90;;;5.98;83.20;99202.88;5051730;28;20207;-62
2021/01/20 04:30:37;;;;;;;1.90;1.37;;;5.10;99.90;;;6.01;82.52;99195.25;5051820;28;20228;-62
2021/01/20 04:33:05;;;;;;;2.43;1.63;;;5.20;99.90;;;5.87;83.24;99206.19;5051559;28;20331;-63
2021/01/20 04:35:32;;;;;;;2.57;1.50;;;5.10;99.90;;;5.89;82.94;99209.50;5051522;28;20204;-61
2021/01/20 04:38:01;;;;;;;1.40;1.30;;;5.10;99.90;;;5.78;83.25;99207.47;5051095;28;20269;-62
2021/01/20 04:40:28;;;;;;;2.43;1.63;;;5.10;99.90;;;6.02;82.33;99206.78;5051382;28;20704;-62
2021/01/20 04:42:56;;;;;;;2.40;1.50;;;5.20;99.90;;;6.02;82.52;99206.78;5040795;28;20209;-62
2021/01/20 04:45:23;;;;;;;2.80;1.70;;;5.20;99.90;;;6.01;81.74;99195.25;5031638;28;20209;-61
2021/01/20 04:47:54;;;;;;;2.10;1.60;;;5.10;99.90;;;6.06;81.24;99179.38;5031763;28;20205;-61
2021/01/20 04:50:23;;;;;;;1.67;1.33;;;5.10;99.90;;;6.02;81.29;99169.34;5031360;28;20219;-61
2021/01/20 04:52:53;;;;;;;1.80;1.50;;;5.10;99.90;;;5.94;81.59;99175.75;5031040;28;20244;-61
2021/01/20 04:55:20;;;;;;;4.23;1.57;;;5.10;99.90;;;6.10;80.76;99161.06;5031535;28;20720;-62
2021/01/20 04:57:47;;;;;;;2.43;1.63;;;5.10;99.90;;;6.03;81.55;99171.81;5031213;28;20323;-62
2021/01/20 05:00:17;;;;;;;1.63;1.50;;;5.10;99.90;;;6.30;80.63;99166.28;5031644;28;20255;-62
2021/01/20 05:02:45;;;;;;;1.87;1.50;;;5.20;99.90;;;5.97;83.27;99161.16;5031269;28;20200;-62
2021/01/20 05:05:15;;;;;;;2.67;1.60;;;5.10;99.90;;;6.02;82.58;99154.13;5031862;28;20209;-61
2021/01/20 05:07:43;;;;;;;2.23;1.80;;;5.20;99.90;;;6.07;81.07;99164.97;5031505;28;20204;-62
2021/01/20 05:10:11;;;;;;;2.20;1.70;;;5.20;99.90;;;6.13;80.95;99156.13;5031491;28;20225;-62
2021/01/20 05:12:40;;;;;;;1.80;1.70;;;5.30;99.90;;;6.19;80.93;99157.91;5035430;28;20350;-62
2021/01/20 05:15:10;;;;;;;3.37;1.97;;;5.20;99.90;;;6.26;80.78;99138.34;5034937;28;20267;-62
2021/01/20 05:17:56;;;;;;;3.70;1.90;;;5.30;99.90;;;6.16;80.09;99134.28;5035374;28;20232;-62
2021/01/20 05:20:29;;;;;;;1.60;1.50;;;5.20;99.90;;;6.16;80.99;99136.97;5035152;28;20178;-62
2021/01/20 05:22:59;;;;;;;2.50;1.87;;;5.30;99.90;;;6.11;80.86;99141.31;5035004;28;20236;-62
2021/01/20 05:25:29;;;;;;;2.10;1.90;;;5.30;99.90;;;6.19;80.16;99146.38;5035254;28;20225;-63
2021/01/20 05:27:57;;;;;;;4.50;1.87;;;5.30;99.90;;;6.25;80.31;99145.53;5035794;28;20247;-62
2021/01/20 05:30:25;;;;;;;2.77;1.83;;;5.30;99.90;;;6.21;80.78;99143.53;5035102;28;20276;-62
2021/01/20 05:32:57;;;;;;;2.57;2.00;;;5.30;99.90;;;6.23;80.14;99158.28;5034658;28;20736;-62
2021/01/20 05:35:25;;;;;;;2.80;2.30;;;5.30;99.90;;;6.11;79.85;99160.84;5035209;28;20206;-62
2021/01/20 05:37:53;;;;;;;2.40;1.60;;;5.30;99.90;;;6.32;80.64;99158.84;5034639;28;20249;-62
2021/01/20 05:40:21;;;;;;;4.77;2.47;;;5.30;99.90;;;6.30;79.57;99156.41;5034919;28;20213;-63
2021/01/20 05:42:53;;;;;;;2.87;2.03;;;5.30;99.90;;;6.27;79.81;99166.72;5044365;28;20274;-62
2021/01/20 05:45:24;;;;;;;2.23;1.97;;;5.40;99.90;;;6.15;80.55;99163.91;5054755;28;20235;-63
2021/01/20 05:48:06;;;;;;;2.47;2.00;;;5.30;99.90;;;6.30;79.60;99153.72;5054800;28;20193;-62
2021/01/20 05:50:35;;;;;;;3.50;2.00;;;5.30;99.90;;;6.20;78.80;99156.06;5054300;28;20209;-62
2021/01/20 05:53:09;;;;;;;3.10;2.10;;;5.40;99.90;;;6.25;79.43;99158.91;5054330;28;20619;-62
2021/01/20 05:55:39;;;;;;;2.33;1.90;;;5.40;99.90;;;6.35;78.47;99159.25;5054735;28;20236;-62
2021/01/20 05:58:07;;;;;;;2.57;2.10;;;5.40;99.90;;;6.38;78.57;99166.00;5054541;28;20201;-62
2021/01/20 06:00:34;;;;;;;2.23;1.90;;;5.40;99.90;;;6.35;78.58;99153.91;5054256;28;20209;-62
2021/01/20 06:03:01;;;;;;;2.43;1.70;;;5.50;99.90;;;6.30;78.16;99161.75;5054501;28;20291;-62
2021/01/20 06:05:29;;;;;;;2.07;1.87;;;5.40;99.90;;;6.24;78.28;99169.81;5054248;28;20209;-62
2021/01/20 06:07:56;;;;;;;3.43;2.80;;;5.40;99.90;;;6.31;77.40;99165.25;5054503;28;20205;-62
2021/01/20 06:10:24;;;;;;;3.77;1.53;;;5.40;99.90;;;6.27;78.74;99170.22;5053844;28;20573;-62
2021/01/20 06:12:53;;;;;;;2.27;2.00;;;5.40;99.90;;;6.25;77.89;99163.44;5054107;28;20211;-63
2021/01/20 06:15:23;;;;;;;2.83;1.90;;;5.40;99.90;;;6.34;78.21;99171.00;5054130;28;20186;-62
2021/01/20 06:17:55;;;;;;;2.43;1.90;;;5.50;99.90;;;6.39;77.17;99175.69;5054181;28;20255;-62
2021/01/20 06:20:24;;;;;;;2.40;2.20;;;5.50;99.90;;;6.42;77.97;99175.25;5054112;28;20629;-62
2021/01/20 06:22:56;;;;;;;3.27;2.00;;;5.50;99.90;;;6.40;77.57;99172.78;5054063;28;20629;-62
2021/01/20 06:25:30;;;;;;;5.80;5.30;;;5.50;99.90;;;6.26;78.36;99173.09;5053672;28;20192;-62
2021/01/20 06:28:06;;;;;;;3.03;2.73;;;5.50;99.90;;;6.16;78.44;99177.06;5054264;28;20702;-63
2021/01/20 06:30:39;;;;;;;4.70;2.20;;;5.50;99.90;;;6.37;78.64;99173.22;5043434;28;20217;-65
2021/01/20 06:33:10;;;;;;;2.73;1.90;;;5.50;99.90;;;6.37;78.16;99175.06;5033683;28;20257;-62
2021/01/20 06:35:41;;;;;;;3.40;2.30;;;5.50;99.90;;;6.26;78.60;99176.56;5033687;28;20692;-62
2021/01/20 06:38:37;;;;;;;2.10;1.90;;;5.50;99.90;;;6.43;77.66;99175.00;5033849;28;20193;-62
2021/01/20 06:41:10;;;;;;;2.70;2.10;;;5.50;99.90;;;6.37;77.72;99167.03;5033413;28;20192;-62
2021/01/20 06:43:44;;;;;;;3.00;2.07;;;5.50;99.90;;;6.33;77.69;99174.69;5049978;28;20284;-61
2021/01/20 06:46:29;;;;;;;3.67;2.10;;;5.60;99.90;;;6.44;77.91;99179.34;5052971;28;20340;-62
2021/01/20 06:49:11;;;;;;;3.00;2.10;;;5.60;99.90;;;6.34;77.29;99191.56;5053001;28;20704;-62
2021/01/20 06:51:42;;;;;;;2.10;1.83;;;5.50;99.90;;;6.43;76.81;99180.38;5053153;28;20209;-62
2021/01/20 06:54:14;;;;;;;4.17;2.13;;;5.50;99.90;;;6.54;77.17;99187.72;5053200;28;20185;-62
2021/01/20 06:56:52;;;;;;;3.30;1.90;;;5.60;99.90;;;6.38;77.62;99185.53;5053108;28;20181;-62
2021/01/20 06:59:27;;;;;;;2.43;2.10;;;5.60;99.90;;;6.48;78.07;99179.75;5052695;28;20196;-63
2021/01/20 07:02:12;;;;;;;2.20;2.00;;;5.60;99.90;;;6.39;77.45;99179.19;5052940;28;20721;-63
2021/01/20 07:04:55;;;;;;;2.00;1.80;;;5.60;99.90;;;6.33;77.77;99174.69;5053002;28;20232;-62
2021/01/20 07:08:08;;;;;;;4.60;2.03;;;5.60;99.90;;;6.49;76.96;99168.81;5053521;28;20223;-63
2021/01/20 07:11:06;;;;;;;3.70;3.10;;;5.60;99.90;;;6.42;76.65;99177.91;5055365;28;20228;-63
2021/01/20 07:13:41;;;;;;;3.03;1.80;;;5.60;99.90;;;6.55;76.70;99173.28;5052669;28;20567;-62
2021/01/20 07:16:11;;;;;;;4.40;2.53;;;5.70;99.90;;;6.57;77.00;99176.56;5052394;28;20291;-63
2021/01/20 07:18:46;;;;;;;3.20;2.30;;;5.70;99.90;;;6.52;76.54;99175.56;5052805;28;20189;-62
2021/01/20 07:21:14;;;;;;;2.63;2.10;;;5.70;99.90;;;6.62;76.67;99179.41;5052480;28;20246;-63
2021/01/20 07:23:42;;;;;;;3.03;2.20;;;5.70;99.90;;;6.58;76.11;99178.19;5052689;28;20201;-63
2021/01/20 07:26:11;;;;;;;4.03;2.40;;;5.70;99.90;;;6.61;76.50;99175.09;5052776;28;20323;-63
2021/01/20 07:28:40;;;;;;;2.47;1.97;;;5.70;99.90;;;6.69;76.00;99185.53;5052436;28;20574;-62
2021/01/20 07:31:11;;;;;;;3.63;2.37;;;5.70;99.90;;;6.75;75.65;99179.28;5052482;28;20225;-63
2021/01/20 07:33:40;;;;;;;2.87;2.00;;;5.80;99.90;;;6.75;75.30;99184.63;5051742;28;20233;-63
2021/01/20 07:36:15;;;;;;;2.53;1.97;;;5.80;99.90;;;6.86;75.58;99196.50;5052397;28;20205;-63
2021/01/20 07:38:47;;;;;;;3.83;2.80;;;5.80;99.90;;;6.75;75.35;99192.66;5052454;28;20208;-63
2021/01/20 07:41:21;;;;;;;2.83;2.20;;;5.80;99.90;;;6.72;75.12;99190.44;5052130;28;20188;-63
2021/01/20 07:43:51;;;;;;;4.43;2.10;;;5.80;99.90;;;6.82;74.29;99196.09;5034455;28;20341;-63
2021/01/20 07:46:22;;;;;;;3.37;2.40;;;5.80;99.90;;;7.02;74.57;99190.56;5032557;28;20601;-62
2021/01/20 07:48:50;;;;;;;4.57;2.43;;;5.90;99.90;;;6.92;74.65;99198.28;5032291;28;20598;-62
2021/01/20 07:51:22;;;;;;;4.13;2.30;;;6.00;99.90;;;6.99;74.31;99205.22;5032183;28;20245;-66
2021/01/20 07:53:57;;;;;;;1.77;1.67;;;6.00;99.90;;;6.89;73.56;99194.19;5032029;28;20237;-62
2021/01/20 07:56:26;;;;;;;2.53;2.00;;;6.00;99.90;;;6.94;74.38;99204.22;5031998;28;20206;-62
2021/01/20 07:58:54;;;;;;;2.07;1.87;;;6.00;99.90;;;6.94;74.38;99202.38;5033748;28;20217;-62
2021/01/20 08:01:27;;;;;;;2.00;1.80;;;6.00;99.90;;;6.96;73.85;99204.84;5031842;28;20726;-62
2021/01/20 08:03:56;;;;;;;2.60;2.40;;;6.10;99.90;;;6.92;74.24;99204.47;5031699;28;20642;-61
2021/01/20 08:06:25;;;;;;;3.47;2.30;;;6.10;99.90;;;6.86;73.84;99199.16;5031092;28;20225;-65
2021/01/20 08:08:55;;;;;;;2.83;2.50;;;6.00;99.90;;;6.90;74.37;99198.50;5031632;28;20206;-66
2021/01/20 08:11:28;;;;;;;4.23;2.30;;;6.10;99.90;;;7.02;74.47;99204.78;5031483;28;20220;-65
2021/01/20 08:13:59;;;;;;;2.53;2.27;;;6.10;99.90;;;7.03;73.40;99195.72;5031233;28;20616;-65
2021/01/20 08:16:28;;;;;;;3.03;2.20;;;6.10;99.90;;;6.92;73.52;99209.81;5033074;28;20204;-66
2021/01/20 08:18:58;;;;;;;2.67;2.00;;;6.20;99.90;;;7.04;73.11;99213.41;5048603;28;20240;-66
2021/01/20 08:21:26;;;;;;;2.00;1.77;;;6.10;99.90;;;7.15;72.27;99209.19;5048595;28;20205;-66
2021/01/20 08:23:56;;;;;;;3.40;2.37;;;6.20;99.90;;;7.29;72.32;99214.19;5048454;28;20279;-66
2021/01/20 08:26:26;;;;;;;3.13;2.17;;;6.30;99.90;;;7.27;71.05;99207.44;5048570;28;20232;-66
2021/01/20 08:29:10;;;;;;;3.27;1.90;;;6.40;99.90;;;7.32;71.10;99221.78;5048113;28;20189;-67
2021/01/20 08:31:39;;;;;;;2.37;1.77;;;6.40;99.90;;;7.26;71.79;99227.19;5048324;28;20185;-64
2021/01/20 08:34:22;;;;;;;1.73;1.60;;;6.50;99.90;;;7.21;71.62;99222.53;5047696;28;20233;-68
2021/01/20 08:36:58;;;;;;;2.63;2.00;;;6.50;99.90;;;7.36;71.29;99224.84;5048128;28;20185;-67
2021/01/20 08:39:26;;;;;;;2.13;1.80;;;6.50;99.90;;;7.52;70.68;99234.97;5048194;28;20200;-68
2021/01/20 08:42:21;;;;;;;1.77;1.60;;;6.50;99.90;;;7.41;70.50;99231.16;5045681;28;20545;-67
2021/01/20 08:45:13;;;;;;;2.63;1.90;;;6.50;99.90;;;7.68;70.30;99230.91;5028342;28;20240;-67
2021/01/20 08:47:51;;;;;;;2.20;1.77;;;6.60;99.90;;;7.56;70.32;99222.75;5031991;28;20681;-67
2021/01/20 08:50:31;;;;;;;2.73;1.90;;;6.70;99.90;;;7.78;68.32;99226.63;5031888;28;20216;-61
2021/01/20 08:53:01;;;;;;;2.30;2.10;;;6.80;99.90;;;7.97;67.78;99230.09;5031844;28;20186;-66
2021/01/20 08:55:31;;;;;;;4.07;1.80;;;6.90;99.90;;;8.17;67.94;99227.97;5032147;28;20248;-66
2021/01/20 08:58:27;;;;;;;3.43;1.73;;;7.00;99.90;;;8.28;67.41;99221.88;5031568;28;20206;-69
2021/01/20 09:00:59;;;;;;;2.00;1.70;;;7.20;99.90;;;8.50;66.23;99220.34;5031575;28;20622;-63
2021/01/20 09:03:29;;;;;;;1.90;1.63;;;7.40;99.90;;;8.78;64.90;99222.38;5031891;28;20193;-69
2021/01/20 09:05:58;;;;;;;1.60;1.50;;;7.60;99.90;;;8.90;65.85;99210.59;5031764;28;20206;-65
2021/01/20 09:08:29;;;;;;;1.97;1.60;;;7.70;99.90;;;8.95;64.76;99204.50;5031706;28;20217;-65
2021/01/20 09:10:59;;;;;;;2.03;1.83;;;7.80;99.90;;;9.03;65.21;99213.03;5031410;28;20245;-66
2021/01/20 09:13:27;;;;;;;2.90;2.23;;;7.90;99.90;;;9.10;64.55;99213.75;5032073;28;20234;-64
2021/01/20 09:15:56;;;;;;;2.50;1.80;;;8.00;99.90;;;9.15;63.81;99208.50;5031277;28;20252;-68
2021/01/20 09:18:26;;;;;;;2.67;1.77;;;8.10;99.90;;;9.05;64.29;99208.25;5031335;28;20263;-67
2021/01/20 09:20:55;;;;;;;2.10;1.83;;;8.10;99.90;;;8.77;65.43;99201.94;5031582;28;20209;-69
2021/01/20 09:23:23;;;;;;;2.00;1.80;;;8.00;99.90;;;8.66;66.18;99198.19;5031209;28;20705;-70
2021/01/20 09:25:50;;;;;;;2.53;1.87;;;7.90;99.90;;;8.69;66.86;99208.47;5031602;28;20213;-63
2021/01/20 09:28:18;;;;;;;2.20;1.70;;;7.80;99.90;;;8.54;67.85;99208.91;5031050;28;20292;-63
2021/01/20 09:30:45;;;;;;;3.03;1.70;;;7.80;99.90;;;8.41;67.11;99208.28;5031508;28;20304;-67
2021/01/20 09:33:13;;;;;;;2.37;1.60;;;7.70;99.90;;;8.43;67.23;99200.81;5031193;28;20257;-67
2021/01/20 09:35:42;;;;;;;2.50;1.70;;;7.60;99.90;;;8.43;67.15;99207.00;5031428;28;20470;-64
2021/01/20 09:38:09;;;;;;;3.43;1.90;;;7.60;99.90;;;8.44;67.05;99205.13;5031242;28;20202;-68
2021/01/20 09:40:38;;;;;;;2.93;1.80;;;7.60;99.90;;;8.38;67.26;99206.88;5031035;28;20689;-67
2021/01/20 09:43:05;;;;;;;3.70;2.13;;;7.60;99.90;;;8.47;67.55;99210.06;5042723;28;20208;-67
2021/01/20 09:45:33;;;;;;;2.40;1.60;;;7.60;99.90;;;8.62;67.61;99219.28;5051127;28;20213;-69
2021/01/20 09:48:04;;;;;;;2.07;1.80;;;7.60;99.90;;;8.70;66.81;99212.78;5051004;28;20214;-68
2021/01/20 09:50:34;;;;;;;2.37;1.67;;;7.70;99.90;;;8.75;67.19;99202.16;5050806;28;20240;-69
2021/01/20 09:53:02;;;;;;;2.07;1.87;;;7.80;99.90;;;8.56;67.63;99208.66;5050846;28;20189;-69
2021/01/20 09:55:31;;;;;;;1.70;1.50;;;7.80;99.90;;;8.68;67.76;99204.13;5050635;28;20193;-70
2021/01/20 09:58:02;;;;;;;2.83;1.80;;;7.80;99.90;;;8.58;68.17;99202.03;5050137;28;20617;-64
2021/01/20 10:00:30;;;;;;;3.03;2.03;;;7.80;99.90;;;8.48;68.86;99196.41;5050750;28;20189;-64
2021/01/20 10:03:02;;;;;;;1.70;1.50;;;7.70;99.90;;;8.49;68.56;99203.41;5050596;28;20202;-63
2021/01/20 10:05:29;;;;;;;2.37;1.60;;;7.70;99.90;;;8.38;69.92;99204.19;5028096;28;20190;-66
2021/01/20 10:07:57;;;;;;;2.50;1.70;;;7.60;99.90;;;8.26;69.37;99191.78;5030891;28;20285;-66
2021/01/20 10:10:29;;;;;;;3.83;1.70;;;7.60;99.90;;;8.26;68.77;99191.78;5030265;28;20740;-66
2021/01/20 10:12:56;;;;;;;1.60;1.50;;;7.50;99.90;;;8.31;68.94;99189.22;5030478;28;20241;-61
2021/01/20 10:15:24;;;;;;;2.57;1.60;;;7.50;99.90;;;8.26;69.23;99183.72;5030744;28;20212;-60
2021/01/20 10:17:52;;;;;;;1.67;1.57;;;7.60;99.90;;;8.34;67.84;99186.09;5030511;28;20202;-61
2021/01/20 10:20:23;;;;;;;1.97;1.60;;;7.50;99.90;;;8.40;67.81;99163.72;5030531;28;20202;-62
2021/01/20 10:22:50;;;;;;;1.70;1.60;;;7.60;99.90;;;8.36;68.17;99168.72;5030364;28;20296;-63
2021/01/20 10:25:18;;;;;;;2.23;1.50;;;7.60;99.90;;;8.36;68.58;99167.91;5030573;28;20206;-68
2021/01/20 10:27:46;;;;;;;1.53;1.40;;;7.60;99.90;;;8.38;67.37;99147.84;5029976;28;20701;-65
2021/01/20 10:30:14;;;;;;;2.73;1.40;;;7.60;99.90;;;8.35;67.63;99152.84;5029966;28;20228;-69
2021/01/20 10:32:42;;;;;;;1.30;1.20;;;7.60;99.90;;;8.41;67.57;99162.66;5029824;28;20234;-70
2021/01/20 10:35:10;;;;;;;1.27;1.17;;;7.60;99.90;;;8.33;67.67;99145.03;5029929;28;20561;-68
2021/01/20 10:37:38;;;;;;;1.93;1.70;;;7.60;99.90;;;8.43;67.26;99144.47;5029877;28;20249;-65
2021/01/20 10:40:07;;;;;;;1.57;1.37;;;7.60;99.90;;;8.42;66.92;99145.53;5030329;28;20240;-67
2021/01/20 10:42:35;;;;;;;1.90;1.30;;;7.70;99.90;;;8.33;67.92;99144.22;5037070;28;20247;-66
2021/01/20 10:45:06;;;;;;;1.40;1.30;;;7.60;99.90;;;8.44;66.86;99149.59;5049743;28;20735;-67
2021/01/20 10:47:33;;;;;;;1.63;1.30;;;7.60;99.90;;;8.40;68.25;99147.63;5049868;28;20186;-68